Veersedijk — PBCX — position and weather

sailwx.info

Track history (hours):
 
Tides and Currents Weather Stations Pressure Air Temp Water Temp Dewpoint Dewpoint Depression Visibility Wind Speed Wind Dir Waves Ship Positions

Veersedijk

Last reported at 2014-Oct-25 02:31 UTC. Time now 2014-Oct-25 03:34 UTC.
Position N 44°22' E 009°00'.

Length 132 m; draft 6.1 m.

Type: Ship (hazmat cat A). MMSI: 244268000.

Date/timePositionNaut miles runAvg speedWind from/ knotsBaromVisibWave heightAir tempDewpointWater temp
2014-Oct-25 02:31N 44°22' E 009°00'0 0.0
2014-Oct-25 01:28N 44°22' E 009°00'0 0.0
2014-Oct-25 00:31N 44°22' E 009°00'0 0.0
2014-Oct-24 23:34N 44°22' E 009°00'0 0.0
2014-Oct-24 22:34N 44°22' E 009°00'0 0.0
2014-Oct-24 21:18N 44°22' E 009°00'0 0.0
2014-Oct-24 20:24N 44°22' E 009°00'0 0.0
2014-Oct-24 19:33N 44°22' E 009°00'0 0.1
2014-Oct-24 18:27N 44°22' E 009°00'5 5.6
2014-Oct-24 17:33N 44°18' E 009°03'1212.0
2014-Oct-24 16:33N 44°08' E 009°13'1212.3
2014-Oct-24 15:33N 43°58' E 009°23'1312.7
2014-Oct-24 14:33N 43°48' E 009°34'1312.8
2014-Oct-24 13:33N 43°38' E 009°45'1212.0
2014-Oct-24 12:33N 43°30' E 009°58'1211.9
2014-Oct-24 11:33N 43°32' E 010°14'4 3.9
2014-Oct-24 10:33N 43°34' E 010°18'0 0.0
2014-Oct-24 09:33N 43°34' E 010°18'0 0.0
2014-Oct-24 08:33N 43°34' E 010°18'0 0.0
2014-Oct-24 07:33N 43°34' E 010°18'0 0.0
2014-Oct-24 06:33N 43°34' E 010°18'0 0.0
2014-Oct-24 05:33N 43°34' E 010°18'0 0.0
2014-Oct-24 04:33N 43°34' E 010°18'0 0.0
2014-Oct-24 03:33N 43°34' E 010°18'0 0.0
2014-Oct-24 02:33N 43°34' E 010°18'0 0.0
2014-Oct-24 01:33N 43°34' E 010°18'0 0.0
2014-Oct-24 00:33N 43°34' E 010°18'0 0.0
2014-Oct-23 23:33N 43°34' E 010°18'0 0.0
2014-Oct-23 22:33N 43°34' E 010°18'0 0.0
2014-Oct-23 21:33N 43°34' E 010°18'0 0.0
2014-Oct-23 20:33N 43°34' E 010°18'0 0.0
2014-Oct-23 19:33N 43°34' E 010°18'1 1.2
2014-Oct-23 18:33N 43°33' E 010°17'6 5.6
2014-Oct-23 17:33N 43°29' E 010°13'1312.7
2014-Oct-23 16:33N 43°19' E 010°01'1212.4
2014-Oct-23 15:34N 43°16' E 009°45'1312.8
2014-Oct-23 14:33N 43°13' E 009°28'1312.9
2014-Oct-23 13:33N 43°11' E 009°10'1413.6
2014-Oct-23 12:34N 43°10' E 008°52'6913.7
2014-Oct-23 07:31N 42°59' E 007°18'1313.4
2014-Oct-23 06:33N 42°57' E 007°01'1312.8
2014-Oct-23 05:33N 42°55' E 006°44'2811.9
2014-Oct-23 03:14N 42°52' E 006°06'912.2
2014-Oct-23 02:31N 42°55' E 005°55'1312.7
2014-Oct-23 01:32N 42°59' E 005°39'2713.8
2014-Oct-22 23:34N 43°10' E 005°05'1312.9
2014-Oct-22 22:33N 43°22' E 004°57'5 5.3
2014-Oct-22 21:33N 43°24' E 004°51'0 0.0
2014-Oct-22 20:33N 43°24' E 004°51'0 0.0
2014-Oct-22 19:33N 43°24' E 004°51'0 0.0
2014-Oct-22 18:33N 43°24' E 004°51'0 0.0
2014-Oct-22 17:33N 43°24' E 004°51'0 0.0
2014-Oct-22 16:33N 43°24' E 004°51'0 0.0
2014-Oct-22 15:33N 43°24' E 004°51'0 0.0
2014-Oct-22 14:33N 43°24' E 004°51'0 0.0
2014-Oct-22 13:33N 43°24' E 004°51'0 0.0
2014-Oct-22 12:33N 43°24' E 004°51'0 0.0
2014-Oct-22 11:33N 43°24' E 004°51'0 0.0
2014-Oct-22 10:33N 43°24' E 004°51'0 0.0
2014-Oct-22 09:33N 43°24' E 004°51'0 0.0
2014-Oct-22 08:33N 43°24' E 004°51'0 0.0
2014-Oct-22 07:33N 43°24' E 004°51'0 0.0
2014-Oct-22 06:33N 43°24' E 004°51'0 0.0
2014-Oct-22 05:33N 43°24' E 004°51'0 0.0
2014-Oct-22 04:33N 43°24' E 004°51'0 0.0
2014-Oct-22 03:33N 43°24' E 004°51'0 0.0
2014-Oct-22 02:33N 43°24' E 004°51'0 0.0
2014-Oct-22 01:33N 43°24' E 004°51'0 0.0
2014-Oct-22 00:33N 43°24' E 004°51'0 0.0
2014-Oct-21 23:33N 43°24' E 004°51'0 0.0
2014-Oct-21 22:33N 43°24' E 004°51'0 0.0
2014-Oct-21 21:33N 43°24' E 004°51'0 0.0
2014-Oct-21 20:33N 43°24' E 004°51'0 0.0
2014-Oct-21 19:32N 43°24' E 004°51'0 0.0
2014-Oct-21 18:32N 43°24' E 004°51'0 0.0
2014-Oct-21 17:26N 43°24' E 004°51'0 0.0
2014-Oct-21 16:32N 43°24' E 004°51'0 0.0
2014-Oct-21 15:32N 43°24' E 004°51'0 0.1
2014-Oct-21 14:33N 43°24' E 004°51'8 7.9
2014-Oct-21 13:33N 43°19' E 004°59'1111.0
2014-Oct-21 12:33N 43°08' E 004°59'1414.0
2014-Oct-21 11:33N 42°58' E 004°46'1414.3
2014-Oct-21 10:33N 42°47' E 004°33'1414.4
2014-Oct-21 09:33N 42°36' E 004°21'1414.2
2014-Oct-21 08:33N 42°26' E 004°08'1614.1
2014-Oct-21 07:25N 42°14' E 003°53'1414.8
2014-Oct-21 06:27N 42°05' E 003°38'81 6.1
2014-Oct-20 17:11N 41°17' E 002°11'910.3
2014-Oct-20 16:20N 41°13' E 002°01'1214.3
2014-Oct-20 15:32N 41°09' E 001°46'1914.6
2014-Oct-20 14:14N 41°05' E 001°22'116 7.0
2014-Oct-19 21:33N 39°32' W 000°09'1010.1
2014-Oct-19 20:33N 39°26' W 000°20'0 0.0
2014-Oct-19 18:24N 39°26' W 000°20'1 1.3
2014-Oct-19 17:29N 39°27' W 000°19'0 0.0
2014-Oct-19 16:23N 39°27' W 000°19'0 0.0
2014-Oct-19 15:32N 39°27' W 000°19'0 0.0
2014-Oct-19 14:29N 39°27' W 000°19'0 0.0
2014-Oct-19 13:32N 39°27' W 000°19'0 0.0
2014-Oct-19 12:32N 39°27' W 000°19'0 0.0
2014-Oct-19 11:16N 39°27' W 000°19'8010.1
2014-Oct-19 03:18N 38°08' W 000°01'1013.2
2014-Oct-19 02:33N 38°00' W 000°08'1313.0
2014-Oct-19 01:33N 37°49' W 000°17'1313.2
2014-Oct-19 00:33N 37°38' W 000°26'1312.9
2014-Oct-18 23:32N 37°28' W 000°37'1313.2
2014-Oct-18 22:33N 37°20' W 000°49'1413.2
2014-Oct-18 21:31N 37°11' W 001°02'2613.1
2014-Oct-18 19:33N 36°54' W 001°27'184 7.5
2014-Oct-17 19:09N 36°07' W 005°08'813.1
2014-Oct-17 18:33N 36°06' W 005°17'7 6.6
2014-Oct-17 17:31N 36°08' W 005°25'0 0.0
2014-Oct-17 16:22N 36°08' W 005°25'0 0.0
2014-Oct-17 15:28N 36°08' W 005°25'0 0.0
2014-Oct-17 14:31N 36°08' W 005°25'0 0.0
2014-Oct-17 13:28N 36°08' W 005°25'2 1.9
2014-Oct-17 12:30N 36°09' W 005°26'0 0.0
2014-Oct-17 10:32N 36°09' W 005°26'0 0.1
2014-Oct-17 09:05N 36°09' W 005°26'2 4.1
2014-Oct-17 08:31N 36°08' W 005°24'5 4.8
2014-Oct-17 07:33N 36°05' W 005°19'3 2.6
2014-Oct-17 06:33N 36°06' W 005°22'3 2.8
2014-Oct-17 05:33N 36°05' W 005°19'2 2.0
2014-Oct-17 04:33N 36°04' W 005°21'8 8.1
2014-Oct-17 03:34N 35°58' W 005°27'1613.9
2014-Oct-17 02:26N 35°53' W 005°45'  
Track history (hours):
 
Tides and Currents Weather Stations Pressure Air Temp Water Temp Dewpoint Dewpoint Depression Visibility Wind Speed Wind Dir Waves Ship Positions

Veersedijk

Last reported at 2014-Oct-25 02:31 UTC. Time now 2014-Oct-25 03:34 UTC.
Position N 44°22' E 009°00'.

Length 132 m; draft 6.1 m.

Type: Ship (hazmat cat A). MMSI: 244268000.

Date/timePositionNaut miles runAvg speedWind from/ knotsBaromVisibWave heightAir tempDewpointWater temp
2014-Oct-25 02:31N 44°22' E 009°00'0 0.0
2014-Oct-25 01:28N 44°22' E 009°00'0 0.0
2014-Oct-25 00:31N 44°22' E 009°00'0 0.0
2014-Oct-24 23:34N 44°22' E 009°00'0 0.0
2014-Oct-24 22:34N 44°22' E 009°00'0 0.0
2014-Oct-24 21:18N 44°22' E 009°00'0 0.0
2014-Oct-24 20:24N 44°22' E 009°00'0 0.0
2014-Oct-24 19:33N 44°22' E 009°00'0 0.1
2014-Oct-24 18:27N 44°22' E 009°00'5 5.6
2014-Oct-24 17:33N 44°18' E 009°03'1212.0
2014-Oct-24 16:33N 44°08' E 009°13'1212.3
2014-Oct-24 15:33N 43°58' E 009°23'1312.7
2014-Oct-24 14:33N 43°48' E 009°34'1312.8
2014-Oct-24 13:33N 43°38' E 009°45'1212.0
2014-Oct-24 12:33N 43°30' E 009°58'1211.9
2014-Oct-24 11:33N 43°32' E 010°14'4 3.9
2014-Oct-24 10:33N 43°34' E 010°18'0 0.0
2014-Oct-24 09:33N 43°34' E 010°18'0 0.0
2014-Oct-24 08:33N 43°34' E 010°18'0 0.0
2014-Oct-24 07:33N 43°34' E 010°18'0 0.0
2014-Oct-24 06:33N 43°34' E 010°18'0 0.0
2014-Oct-24 05:33N 43°34' E 010°18'0 0.0
2014-Oct-24 04:33N 43°34' E 010°18'0 0.0
2014-Oct-24 03:33N 43°34' E 010°18'0 0.0
2014-Oct-24 02:33N 43°34' E 010°18'0 0.0
2014-Oct-24 01:33N 43°34' E 010°18'0 0.0
2014-Oct-24 00:33N 43°34' E 010°18'0 0.0
2014-Oct-23 23:33N 43°34' E 010°18'0 0.0
2014-Oct-23 22:33N 43°34' E 010°18'0 0.0
2014-Oct-23 21:33N 43°34' E 010°18'0 0.0
2014-Oct-23 20:33N 43°34' E 010°18'0 0.0
2014-Oct-23 19:33N 43°34' E 010°18'1 1.2
2014-Oct-23 18:33N 43°33' E 010°17'6 5.6
2014-Oct-23 17:33N 43°29' E 010°13'1312.7
2014-Oct-23 16:33N 43°19' E 010°01'1212.4
2014-Oct-23 15:34N 43°16' E 009°45'1312.8
2014-Oct-23 14:33N 43°13' E 009°28'1312.9
2014-Oct-23 13:33N 43°11' E 009°10'1413.6
2014-Oct-23 12:34N 43°10' E 008°52'6913.7
2014-Oct-23 07:31N 42°59' E 007°18'1313.4
2014-Oct-23 06:33N 42°57' E 007°01'1312.8
2014-Oct-23 05:33N 42°55' E 006°44'2811.9
2014-Oct-23 03:14N 42°52' E 006°06'912.2
2014-Oct-23 02:31N 42°55' E 005°55'1312.7
2014-Oct-23 01:32N 42°59' E 005°39'2713.8
2014-Oct-22 23:34N 43°10' E 005°05'1312.9
2014-Oct-22 22:33N 43°22' E 004°57'5 5.3
2014-Oct-22 21:33N 43°24' E 004°51'0 0.0
2014-Oct-22 20:33N 43°24' E 004°51'0 0.0
2014-Oct-22 19:33N 43°24' E 004°51'0 0.0
2014-Oct-22 18:33N 43°24' E 004°51'0 0.0
2014-Oct-22 17:33N 43°24' E 004°51'0 0.0
2014-Oct-22 16:33N 43°24' E 004°51'0 0.0
2014-Oct-22 15:33N 43°24' E 004°51'0 0.0
2014-Oct-22 14:33N 43°24' E 004°51'0 0.0
2014-Oct-22 13:33N 43°24' E 004°51'0 0.0
2014-Oct-22 12:33N 43°24' E 004°51'0 0.0
2014-Oct-22 11:33N 43°24' E 004°51'0 0.0
2014-Oct-22 10:33N 43°24' E 004°51'0 0.0
2014-Oct-22 09:33N 43°24' E 004°51'0 0.0
2014-Oct-22 08:33N 43°24' E 004°51'0 0.0
2014-Oct-22 07:33N 43°24' E 004°51'0 0.0
2014-Oct-22 06:33N 43°24' E 004°51'0 0.0
2014-Oct-22 05:33N 43°24' E 004°51'0 0.0
2014-Oct-22 04:33N 43°24' E 004°51'0 0.0
2014-Oct-22 03:33N 43°24' E 004°51'0 0.0
2014-Oct-22 02:33N 43°24' E 004°51'0 0.0
2014-Oct-22 01:33N 43°24' E 004°51'0 0.0
2014-Oct-22 00:33N 43°24' E 004°51'0 0.0
2014-Oct-21 23:33N 43°24' E 004°51'0 0.0
2014-Oct-21 22:33N 43°24' E 004°51'0 0.0
2014-Oct-21 21:33N 43°24' E 004°51'0 0.0
2014-Oct-21 20:33N 43°24' E 004°51'0 0.0
2014-Oct-21 19:32N 43°24' E 004°51'0 0.0
2014-Oct-21 18:32N 43°24' E 004°51'0 0.0
2014-Oct-21 17:26N 43°24' E 004°51'0 0.0
2014-Oct-21 16:32N 43°24' E 004°51'0 0.0
2014-Oct-21 15:32N 43°24' E 004°51'0 0.1
2014-Oct-21 14:33N 43°24' E 004°51'8 7.9
2014-Oct-21 13:33N 43°19' E 004°59'1111.0
2014-Oct-21 12:33N 43°08' E 004°59'1414.0
2014-Oct-21 11:33N 42°58' E 004°46'1414.3
2014-Oct-21 10:33N 42°47' E 004°33'1414.4
2014-Oct-21 09:33N 42°36' E 004°21'1414.2
2014-Oct-21 08:33N 42°26' E 004°08'1614.1
2014-Oct-21 07:25N 42°14' E 003°53'1414.8
2014-Oct-21 06:27N 42°05' E 003°38'81 6.1
2014-Oct-20 17:11N 41°17' E 002°11'910.3
2014-Oct-20 16:20N 41°13' E 002°01'1214.3
2014-Oct-20 15:32N 41°09' E 001°46'1914.6
2014-Oct-20 14:14N 41°05' E 001°22'116 7.0
2014-Oct-19 21:33N 39°32' W 000°09'1010.1
2014-Oct-19 20:33N 39°26' W 000°20'0 0.0
2014-Oct-19 18:24N 39°26' W 000°20'1 1.3
2014-Oct-19 17:29N 39°27' W 000°19'0 0.0
2014-Oct-19 16:23N 39°27' W 000°19'0 0.0
2014-Oct-19 15:32N 39°27' W 000°19'0 0.0
2014-Oct-19 14:29N 39°27' W 000°19'0 0.0
2014-Oct-19 13:32N 39°27' W 000°19'0 0.0
2014-Oct-19 12:32N 39°27' W 000°19'0 0.0
2014-Oct-19 11:16N 39°27' W 000°19'8010.1
2014-Oct-19 03:18N 38°08' W 000°01'1013.2
2014-Oct-19 02:33N 38°00' W 000°08'1313.0
2014-Oct-19 01:33N 37°49' W 000°17'1313.2
2014-Oct-19 00:33N 37°38' W 000°26'1312.9
2014-Oct-18 23:32N 37°28' W 000°37'1313.2
2014-Oct-18 22:33N 37°20' W 000°49'1413.2
2014-Oct-18 21:31N 37°11' W 001°02'2613.1
2014-Oct-18 19:33N 36°54' W 001°27'184 7.5
2014-Oct-17 19:09N 36°07' W 005°08'813.1
2014-Oct-17 18:33N 36°06' W 005°17'7 6.6
2014-Oct-17 17:31N 36°08' W 005°25'0 0.0
2014-Oct-17 16:22N 36°08' W 005°25'0 0.0
2014-Oct-17 15:28N 36°08' W 005°25'0 0.0
2014-Oct-17 14:31N 36°08' W 005°25'0 0.0
2014-Oct-17 13:28N 36°08' W 005°25'2 1.9
2014-Oct-17 12:30N 36°09' W 005°26'0 0.0
2014-Oct-17 10:32N 36°09' W 005°26'0 0.1
2014-Oct-17 09:05N 36°09' W 005°26'2 4.1
2014-Oct-17 08:31N 36°08' W 005°24'5 4.8
2014-Oct-17 07:33N 36°05' W 005°19'3 2.6
2014-Oct-17 06:33N 36°06' W 005°22'3 2.8
2014-Oct-17 05:33N 36°05' W 005°19'2 2.0
2014-Oct-17 04:33N 36°04' W 005°21'8 8.1
2014-Oct-17 03:34N 35°58' W 005°27'1613.9
2014-Oct-17 02:26N 35°53' W 005°45'  

Dump ship's entire track history